Baltimore, Maryland
Traffic Map
Current Weather Conditions
Baltimore, Maryland
Broken Clouds
Broken Clouds
61°
Feels Like: 61°
Wind Chill: 61° Ceiling: 6000
Heat Index: 61° Visibility: 10mi
Dew Point: 57° Wind: 7mph
Humidity: 87% Direction: 270° (W)
Pressure: 29.9in Gusts: 0mph
Raw Report DataKBWI 291054Z 27006KT 10SM FEW030 BKN060 BKN075 16/14 A2990 RMK AO2 SLP124 T01610139
Traffic Incident Summary
Active as of:
Severity:
Category:
InformationThere was an issue retrieving the traffic information for this location. Please try a different location or try again shortly.
Advertisements
Track Severe Weather on mobile